sensor_id;sensor_type;location;lat;lon;timestamp;temperature;humidity
10129;DHT22;5104;50.720;7.044;2022-08-03T00:01:37;20.60;20.20
10129;DHT22;5104;50.720;7.044;2022-08-03T00:04:06;20.50;40.70
10129;DHT22;5104;50.720;7.044;2022-08-03T00:06:33;20.50;88.40
10129;DHT22;5104;50.720;7.044;2022-08-03T00:09:00;20.50;89.50
10129;DHT22;5104;50.720;7.044;2022-08-03T00:11:28;20.50;99.90
10129;DHT22;5104;50.720;7.044;2022-08-03T00:13:55;20.40;99.90
10129;DHT22;5104;50.720;7.044;2022-08-03T00:16:22;20.40;99.90
10129;DHT22;5104;50.720;7.044;2022-08-03T00:18:49;20.30;99.90
10129;DHT22;5104;50.720;7.044;2022-08-03T00:21:16;20.20;99.90
10129;DHT22;5104;50.720;7.044;2022-08-03T00:23:43;20.20;99.90
10129;DHT22;5104;50.720;7.044;2022-08-03T00:26:10;20.20;1.00
10129;DHT22;5104;50.720;7.044;2022-08-03T00:28:38;20.10;1.00
10129;DHT22;5104;50.720;7.044;2022-08-03T00:31:06;20.10;1.00
10129;DHT22;5104;50.720;7.044;2022-08-03T00:33:33;20.00;1.00
10129;DHT22;5104;50.720;7.044;2022-08-03T00:35:59;20.00;1.00
10129;DHT22;5104;50.720;7.044;2022-08-03T00:38:26;20.00;1.00
10129;DHT22;5104;50.720;7.044;2022-08-03T00:40:53;20.00;1.00
10129;DHT22;5104;50.720;7.044;2022-08-03T00:43:24;20.00;1.00
10129;DHT22;5104;50.720;7.044;2022-08-03T00:45:52;20.10;1.00
10129;DHT22;5104;50.720;7.044;2022-08-03T00:48:20;20.00;1.00
10129;DHT22;5104;50.720;7.044;2022-08-03T00:50:48;20.00;1.00
10129;DHT22;5104;50.720;7.044;2022-08-03T00:53:15;19.90;1.00
10129;DHT22;5104;50.720;7.044;2022-08-03T00:55:43;19.90;1.00
10129;DHT22;5104;50.720;7.044;2022-08-03T00:58:09;19.90;1.00
10129;DHT22;5104;50.720;7.044;2022-08-03T01:00:38;19.80;1.00
10129;DHT22;5104;50.720;7.044;2022-08-03T01:03:08;19.80;1.00
10129;DHT22;5104;50.720;7.044;2022-08-03T01:05:51;19.80;1.00
10129;DHT22;5104;50.720;7.044;2022-08-03T01:08:24;19.90;1.00
10129;DHT22;5104;50.720;7.044;2022-08-03T01:11:04;19.80;1.00
10129;DHT22;5104;50.720;7.044;2022-08-03T01:13:38;19.80;1.00
10129;DHT22;5104;50.720;7.044;2022-08-03T01:16:11;19.60;99.90
10129;DHT22;5104;50.720;7.044;2022-08-03T01:18:44;19.40;99.90
10129;DHT22;5104;50.720;7.044;2022-08-03T01:21:19;19.40;1.00
10129;DHT22;5104;50.720;7.044;2022-08-03T01:23:59;19.40;1.00
10129;DHT22;5104;50.720;7.044;2022-08-03T01:26:52;19.30;1.00
10129;DHT22;5104;50.720;7.044;2022-08-03T01:29:51;19.30;1.00
10129;DHT22;5104;50.720;7.044;2022-08-03T01:32:20;19.30;1.00
10129;DHT22;5104;50.720;7.044;2022-08-03T01:34:51;19.40;1.00
10129;DHT22;5104;50.720;7.044;2022-08-03T01:37:25;19.40;1.00
10129;DHT22;5104;50.720;7.044;2022-08-03T01:39:55;19.40;99.90
10129;DHT22;5104;50.720;7.044;2022-08-03T01:42:24;19.50;99.90
10129;DHT22;5104;50.720;7.044;2022-08-03T01:44:54;19.40;99.90
10129;DHT22;5104;50.720;7.044;2022-08-03T01:47:25;19.40;1.00
10129;DHT22;5104;50.720;7.044;2022-08-03T01:49:54;19.40;1.00
10129;DHT22;5104;50.720;7.044;2022-08-03T01:52:23;19.40;1.00
10129;DHT22;5104;50.720;7.044;2022-08-03T01:54:51;19.30;1.00
10129;DHT22;5104;50.720;7.044;2022-08-03T01:57:19;19.30;1.00
10129;DHT22;5104;50.720;7.044;2022-08-03T01:59:49;19.20;1.00
10129;DHT22;5104;50.720;7.044;2022-08-03T02:02:19;19.20;1.00
10129;DHT22;5104;50.720;7.044;2022-08-03T02:04:48;19.10;99.90
10129;DHT22;5104;50.720;7.044;2022-08-03T02:07:16;19.20;1.00
10129;DHT22;5104;50.720;7.044;2022-08-03T02:09:45;19.10;1.00
10129;DHT22;5104;50.720;7.044;2022-08-03T02:12:15;19.20;1.00
10129;DHT22;5104;50.720;7.044;2022-08-03T02:14:43;19.20;1.00
10129;DHT22;5104;50.720;7.044;2022-08-03T02:17:11;19.10;1.00
10129;DHT22;5104;50.720;7.044;2022-08-03T02:19:42;19.00;87.00
10129;DHT22;5104;50.720;7.044;2022-08-03T02:22:10;18.90;1.00
10129;DHT22;5104;50.720;7.044;2022-08-03T02:24:38;18.80;1.00
10129;DHT22;5104;50.720;7.044;2022-08-03T02:27:12;18.80;1.00
10129;DHT22;5104;50.720;7.044;2022-08-03T02:29:45;18.70;1.00
10129;DHT22;5104;50.720;7.044;2022-08-03T02:32:16;18.70;99.90
10129;DHT22;5104;50.720;7.044;2022-08-03T02:34:49;18.70;99.90
10129;DHT22;5104;50.720;7.044;2022-08-03T02:37:18;18.70;99.90
10129;DHT22;5104;50.720;7.044;2022-08-03T02:39:46;18.80;1.00
10129;DHT22;5104;50.720;7.044;2022-08-03T02:42:14;18.80;99.90
10129;DHT22;5104;50.720;7.044;2022-08-03T02:44:44;18.70;99.90
10129;DHT22;5104;50.720;7.044;2022-08-03T02:47:14;18.60;1.00
10129;DHT22;5104;50.720;7.044;2022-08-03T02:49:42;18.60;1.00
10129;DHT22;5104;50.720;7.044;2022-08-03T02:52:14;18.60;1.00
10129;DHT22;5104;50.720;7.044;2022-08-03T02:54:43;18.60;13.50
10129;DHT22;5104;50.720;7.044;2022-08-03T02:57:12;18.50;1.00
10129;DHT22;5104;50.720;7.044;2022-08-03T02:59:41;18.50;28.00
10129;DHT22;5104;50.720;7.044;2022-08-03T03:02:10;18.50;99.90
10129;DHT22;5104;50.720;7.044;2022-08-03T03:04:38;18.40;99.90
10129;DHT22;5104;50.720;7.044;2022-08-03T03:07:06;18.40;99.90
10129;DHT22;5104;50.720;7.044;2022-08-03T03:09:34;18.40;99.90
10129;DHT22;5104;50.720;7.044;2022-08-03T03:12:02;18.40;1.00
10129;DHT22;5104;50.720;7.044;2022-08-03T03:14:30;18.40;1.00
10129;DHT22;5104;50.720;7.044;2022-08-03T03:16:58;18.30;1.00
10129;DHT22;5104;50.720;7.044;2022-08-03T03:19:25;18.30;1.00
10129;DHT22;5104;50.720;7.044;2022-08-03T03:21:54;18.30;96.30
10129;DHT22;5104;50.720;7.044;2022-08-03T03:24:21;18.30;57.30
10129;DHT22;5104;50.720;7.044;2022-08-03T03:26:50;18.30;50.90
10129;DHT22;5104;50.720;7.044;2022-08-03T03:29:17;18.30;53.10
10129;DHT22;5104;50.720;7.044;2022-08-03T03:31:44;18.30;47.40
10129;DHT22;5104;50.720;7.044;2022-08-03T03:34:12;18.30;1.00
10129;DHT22;5104;50.720;7.044;2022-08-03T03:36:39;18.30;1.00
10129;DHT22;5104;50.720;7.044;2022-08-03T03:39:06;18.40;99.90
10129;DHT22;5104;50.720;7.044;2022-08-03T03:41:34;18.40;99.90
10129;DHT22;5104;50.720;7.044;2022-08-03T03:44:02;18.30;1.00
10129;DHT22;5104;50.720;7.044;2022-08-03T03:46:29;18.30;1.00
10129;DHT22;5104;50.720;7.044;2022-08-03T03:48:57;18.30;77.60
10129;DHT22;5104;50.720;7.044;2022-08-03T03:51:24;18.20;99.90
10129;DHT22;5104;50.720;7.044;2022-08-03T03:53:55;18.20;99.90
10129;DHT22;5104;50.720;7.044;2022-08-03T03:56:22;18.20;99.90
10129;DHT22;5104;50.720;7.044;2022-08-03T03:58:49;18.20;99.90
10129;DHT22;5104;50.720;7.044;2022-08-03T04:01:18;18.20;1.00
10129;DHT22;5104;50.720;7.044;2022-08-03T04:03:45;18.20;1.00
10129;DHT22;5104;50.720;7.044;2022-08-03T04:06:12;18.20;1.00
10129;DHT22;5104;50.720;7.044;2022-08-03T04:08:57;18.20;1.00
10129;DHT22;5104;50.720;7.044;2022-08-03T04:11:46;18.20;1.00
10129;DHT22;5104;50.720;7.044;2022-08-03T04:14:17;18.20;1.00
10129;DHT22;5104;50.720;7.044;2022-08-03T04:16:49;18.20;99.90
10129;DHT22;5104;50.720;7.044;2022-08-03T04:19:20;18.30;99.90
10129;DHT22;5104;50.720;7.044;2022-08-03T04:21:54;18.30;1.00
10129;DHT22;5104;50.720;7.044;2022-08-03T04:24:22;18.40;1.00
10129;DHT22;5104;50.720;7.044;2022-08-03T04:26:49;18.40;1.00
10129;DHT22;5104;50.720;7.044;2022-08-03T04:29:18;18.50;99.90
10129;DHT22;5104;50.720;7.044;2022-08-03T04:31:48;18.50;99.90
10129;DHT22;5104;50.720;7.044;2022-08-03T04:34:16;18.60;1.00
10129;DHT22;5104;50.720;7.044;2022-08-03T04:36:46;18.60;1.00
10129;DHT22;5104;50.720;7.044;2022-08-03T04:39:18;18.70;6.40
10129;DHT22;5104;50.720;7.044;2022-08-03T04:41:51;18.80;1.00
10129;DHT22;5104;50.720;7.044;2022-08-03T04:44:18;18.90;1.00
10129;DHT22;5104;50.720;7.044;2022-08-03T04:46:47;18.90;1.00
10129;DHT22;5104;50.720;7.044;2022-08-03T04:49:15;18.90;1.00
10129;DHT22;5104;50.720;7.044;2022-08-03T04:51:42;18.90;1.00
10129;DHT22;5104;50.720;7.044;2022-08-03T04:54:11;18.90;1.00
10129;DHT22;5104;50.720;7.044;2022-08-03T04:56:39;19.00;1.00
10129;DHT22;5104;50.720;7.044;2022-08-03T04:59:06;19.00;99.90
10129;DHT22;5104;50.720;7.044;2022-08-03T05:01:33;19.00;99.90
10129;DHT22;5104;50.720;7.044;2022-08-03T05:04:01;19.10;1.00
10129;DHT22;5104;50.720;7.044;2022-08-03T05:06:28;19.20;1.00
10129;DHT22;5104;50.720;7.044;2022-08-03T05:08:55;19.30;1.00
10129;DHT22;5104;50.720;7.044;2022-08-03T05:11:22;19.30;1.00
10129;DHT22;5104;50.720;7.044;2022-08-03T05:13:49;19.40;1.00
10129;DHT22;5104;50.720;7.044;2022-08-03T05:16:16;19.50;1.00
10129;DHT22;5104;50.720;7.044;2022-08-03T05:18:45;19.60;1.00
10129;DHT22;5104;50.720;7.044;2022-08-03T05:21:13;19.70;99.90
10129;DHT22;5104;50.720;7.044;2022-08-03T05:23:41;19.70;99.90
10129;DHT22;5104;50.720;7.044;2022-08-03T05:26:08;19.80;93.30
10129;DHT22;5104;50.720;7.044;2022-08-03T05:28:37;19.80;99.90
10129;DHT22;5104;50.720;7.044;2022-08-03T05:31:04;19.90;1.00
10129;DHT22;5104;50.720;7.044;2022-08-03T05:33:31;20.00;1.00
10129;DHT22;5104;50.720;7.044;2022-08-03T05:35:57;20.10;1.00
10129;DHT22;5104;50.720;7.044;2022-08-03T05:38:26;20.20;1.00
10129;DHT22;5104;50.720;7.044;2022-08-03T05:40:53;20.30;1.00
10129;DHT22;5104;50.720;7.044;2022-08-03T05:43:23;20.50;99.90
10129;DHT22;5104;50.720;7.044;2022-08-03T05:45:50;20.60;99.90
10129;DHT22;5104;50.720;7.044;2022-08-03T05:48:17;20.70;1.00
10129;DHT22;5104;50.720;7.044;2022-08-03T05:50:44;20.80;1.00
10129;DHT22;5104;50.720;7.044;2022-08-03T05:53:10;20.90;1.00
10129;DHT22;5104;50.720;7.044;2022-08-03T05:55:38;21.00;1.00
10129;DHT22;5104;50.720;7.044;2022-08-03T05:58:05;21.10;1.00
10129;DHT22;5104;50.720;7.044;2022-08-03T06:00:32;21.30;1.00
10129;DHT22;5104;50.720;7.044;2022-08-03T06:02:59;21.40;1.00
10129;DHT22;5104;50.720;7.044;2022-08-03T06:05:27;21.50;1.00
10129;DHT22;5104;50.720;7.044;2022-08-03T06:07:53;21.60;99.90
10129;DHT22;5104;50.720;7.044;2022-08-03T06:10:20;21.70;99.90
10129;DHT22;5104;50.720;7.044;2022-08-03T06:12:49;21.80;99.90
10129;DHT22;5104;50.720;7.044;2022-08-03T06:15:16;22.00;99.90
10129;DHT22;5104;50.720;7.044;2022-08-03T06:17:45;22.10;99.90
10129;DHT22;5104;50.720;7.044;2022-08-03T06:20:12;22.20;99.90
10129;DHT22;5104;50.720;7.044;2022-08-03T06:22:39;22.30;99.90
10129;DHT22;5104;50.720;7.044;2022-08-03T06:25:06;22.40;28.30
10129;DHT22;5104;50.720;7.044;2022-08-03T06:27:33;22.50;1.00
10129;DHT22;5104;50.720;7.044;2022-08-03T06:30:05;22.60;1.00
10129;DHT22;5104;50.720;7.044;2022-08-03T06:32:32;22.70;1.00
10129;DHT22;5104;50.720;7.044;2022-08-03T06:34:59;22.90;1.00
10129;DHT22;5104;50.720;7.044;2022-08-03T06:37:26;23.00;1.00
10129;DHT22;5104;50.720;7.044;2022-08-03T06:39:53;23.10;1.00
10129;DHT22;5104;50.720;7.044;2022-08-03T06:42:20;23.30;1.00
10129;DHT22;5104;50.720;7.044;2022-08-03T06:44:47;23.30;1.00
10129;DHT22;5104;50.720;7.044;2022-08-03T06:47:15;23.40;1.00
10129;DHT22;5104;50.720;7.044;2022-08-03T06:49:42;23.40;1.00
10129;DHT22;5104;50.720;7.044;2022-08-03T06:52:09;23.50;1.00
10129;DHT22;5104;50.720;7.044;2022-08-03T06:54:36;23.70;1.00
10129;DHT22;5104;50.720;7.044;2022-08-03T06:57:03;23.90;1.00
10129;DHT22;5104;50.720;7.044;2022-08-03T06:59:30;24.10;1.00
10129;DHT22;5104;50.720;7.044;2022-08-03T07:01:57;24.10;1.00
10129;DHT22;5104;50.720;7.044;2022-08-03T07:04:25;24.10;1.00
10129;DHT22;5104;50.720;7.044;2022-08-03T07:06:52;24.20;1.00
10129;DHT22;5104;50.720;7.044;2022-08-03T07:09:19;24.40;1.00
10129;DHT22;5104;50.720;7.044;2022-08-03T07:11:47;24.50;1.00
10129;DHT22;5104;50.720;7.044;2022-08-03T07:14:13;24.50;1.00
10129;DHT22;5104;50.720;7.044;2022-08-03T07:16:40;24.70;1.00
10129;DHT22;5104;50.720;7.044;2022-08-03T07:19:07;24.80;1.00
10129;DHT22;5104;50.720;7.044;2022-08-03T07:21:35;24.90;1.00
10129;DHT22;5104;50.720;7.044;2022-08-03T07:24:02;25.10;1.00
10129;DHT22;5104;50.720;7.044;2022-08-03T07:26:29;25.10;1.00
10129;DHT22;5104;50.720;7.044;2022-08-03T07:28:56;25.20;1.00
10129;DHT22;5104;50.720;7.044;2022-08-03T07:31:25;25.40;1.00
10129;DHT22;5104;50.720;7.044;2022-08-03T07:33:52;25.50;1.00
10129;DHT22;5104;50.720;7.044;2022-08-03T07:36:19;25.60;99.90
10129;DHT22;5104;50.720;7.044;2022-08-03T07:38:47;25.70;99.90
10129;DHT22;5104;50.720;7.044;2022-08-03T07:41:15;25.80;99.90
10129;DHT22;5104;50.720;7.044;2022-08-03T07:43:42;25.90;99.90
10129;DHT22;5104;50.720;7.044;2022-08-03T07:46:09;25.90;99.90
10129;DHT22;5104;50.720;7.044;2022-08-03T07:48:35;26.10;99.90
10129;DHT22;5104;50.720;7.044;2022-08-03T07:51:02;26.20;99.90
10129;DHT22;5104;50.720;7.044;2022-08-03T07:53:30;26.30;99.90
10129;DHT22;5104;50.720;7.044;2022-08-03T07:55:58;26.30;99.90
10129;DHT22;5104;50.720;7.044;2022-08-03T07:58:25;26.40;99.90
10129;DHT22;5104;50.720;7.044;2022-08-03T08:00:52;26.50;99.90
10129;DHT22;5104;50.720;7.044;2022-08-03T08:03:20;26.60;99.90
10129;DHT22;5104;50.720;7.044;2022-08-03T08:05:47;26.70;99.90
10129;DHT22;5104;50.720;7.044;2022-08-03T08:08:14;26.90;99.90
10129;DHT22;5104;50.720;7.044;2022-08-03T08:10:41;27.00;99.90
10129;DHT22;5104;50.720;7.044;2022-08-03T08:13:09;27.10;99.90
10129;DHT22;5104;50.720;7.044;2022-08-03T08:15:36;27.30;99.90
10129;DHT22;5104;50.720;7.044;2022-08-03T08:18:03;27.40;99.90
10129;DHT22;5104;50.720;7.044;2022-08-03T08:20:32;27.50;99.90
10129;DHT22;5104;50.720;7.044;2022-08-03T08:23:01;27.60;99.90
10129;DHT22;5104;50.720;7.044;2022-08-03T08:25:29;27.60;99.90
10129;DHT22;5104;50.720;7.044;2022-08-03T08:27:57;27.70;99.90
10129;DHT22;5104;50.720;7.044;2022-08-03T08:30:33;27.80;99.90
10129;DHT22;5104;50.720;7.044;2022-08-03T08:33:01;27.90;99.90
10129;DHT22;5104;50.720;7.044;2022-08-03T08:35:28;27.90;99.90
10129;DHT22;5104;50.720;7.044;2022-08-03T08:37:55;28.00;95.30
10129;DHT22;5104;50.720;7.044;2022-08-03T08:40:22;28.20;77.10
10129;DHT22;5104;50.720;7.044;2022-08-03T08:42:49;28.40;40.50
10129;DHT22;5104;50.720;7.044;2022-08-03T08:45:16;28.50;25.10
10129;DHT22;5104;50.720;7.044;2022-08-03T08:47:47;28.50;18.80
10129;DHT22;5104;50.720;7.044;2022-08-03T08:50:17;28.60;2.40
10129;DHT22;5104;50.720;7.044;2022-08-03T08:52:46;28.50;1.00
10129;DHT22;5104;50.720;7.044;2022-08-03T08:55:22;28.40;1.00
10129;DHT22;5104;50.720;7.044;2022-08-03T08:58:00;28.70;1.00
10129;DHT22;5104;50.720;7.044;2022-08-03T09:00:27;28.80;1.00
10129;DHT22;5104;50.720;7.044;2022-08-03T09:02:57;28.90;1.00
10129;DHT22;5104;50.720;7.044;2022-08-03T09:05:23;29.00;1.00
10129;DHT22;5104;50.720;7.044;2022-08-03T09:07:50;29.10;1.00
10129;DHT22;5104;50.720;7.044;2022-08-03T09:10:18;29.10;1.00
10129;DHT22;5104;50.720;7.044;2022-08-03T09:12:48;29.10;1.00
10129;DHT22;5104;50.720;7.044;2022-08-03T09:15:20;29.20;1.00
10129;DHT22;5104;50.720;7.044;2022-08-03T09:17:48;29.30;1.00
10129;DHT22;5104;50.720;7.044;2022-08-03T09:20:17;29.30;1.00
10129;DHT22;5104;50.720;7.044;2022-08-03T09:22:53;29.30;1.00
10129;DHT22;5104;50.720;7.044;2022-08-03T09:25:26;29.40;1.00
10129;DHT22;5104;50.720;7.044;2022-08-03T09:27:54;29.50;1.00
10129;DHT22;5104;50.720;7.044;2022-08-03T09:30:21;29.70;1.00
10129;DHT22;5104;50.720;7.044;2022-08-03T09:32:48;29.80;1.00
10129;DHT22;5104;50.720;7.044;2022-08-03T09:35:16;29.90;1.00
10129;DHT22;5104;50.720;7.044;2022-08-03T09:38:08;29.90;1.00
10129;DHT22;5104;50.720;7.044;2022-08-03T09:40:35;30.10;1.00
10129;DHT22;5104;50.720;7.044;2022-08-03T09:43:02;30.20;1.00
10129;DHT22;5104;50.720;7.044;2022-08-03T09:45:29;30.30;1.00
10129;DHT22;5104;50.720;7.044;2022-08-03T09:47:55;30.30;1.00
10129;DHT22;5104;50.720;7.044;2022-08-03T09:50:25;30.20;1.00
10129;DHT22;5104;50.720;7.044;2022-08-03T09:52:52;30.10;1.00
10129;DHT22;5104;50.720;7.044;2022-08-03T09:55:19;30.20;1.00
10129;DHT22;5104;50.720;7.044;2022-08-03T09:57:48;29.90;1.00
10129;DHT22;5104;50.720;7.044;2022-08-03T10:00:16;29.90;1.00
10129;DHT22;5104;50.720;7.044;2022-08-03T10:02:43;29.90;1.00
10129;DHT22;5104;50.720;7.044;2022-08-03T10:05:12;30.10;1.00
10129;DHT22;5104;50.720;7.044;2022-08-03T10:07:44;29.90;1.00
10129;DHT22;5104;50.720;7.044;2022-08-03T10:10:12;30.00;1.00
10129;DHT22;5104;50.720;7.044;2022-08-03T10:12:40;30.20;1.00
10129;DHT22;5104;50.720;7.044;2022-08-03T10:15:08;30.40;1.00
10129;DHT22;5104;50.720;7.044;2022-08-03T10:17:35;30.50;1.00
10129;DHT22;5104;50.720;7.044;2022-08-03T10:20:03;30.60;1.00
10129;DHT22;5104;50.720;7.044;2022-08-03T10:22:32;30.70;1.00
10129;DHT22;5104;50.720;7.044;2022-08-03T10:25:05;30.80;1.00
10129;DHT22;5104;50.720;7.044;2022-08-03T10:27:34;31.00;1.00
10129;DHT22;5104;50.720;7.044;2022-08-03T10:30:04;31.00;1.00
10129;DHT22;5104;50.720;7.044;2022-08-03T10:32:34;31.10;1.00
10129;DHT22;5104;50.720;7.044;2022-08-03T10:35:06;31.00;1.00
10129;DHT22;5104;50.720;7.044;2022-08-03T10:37:42;30.90;1.00
10129;DHT22;5104;50.720;7.044;2022-08-03T10:40:12;31.00;1.00
10129;DHT22;5104;50.720;7.044;2022-08-03T10:42:41;31.20;1.00
10129;DHT22;5104;50.720;7.044;2022-08-03T10:45:14;31.40;1.00
10129;DHT22;5104;50.720;7.044;2022-08-03T10:47:44;31.40;1.00
10129;DHT22;5104;50.720;7.044;2022-08-03T10:50:11;31.40;1.00
10129;DHT22;5104;50.720;7.044;2022-08-03T10:52:53;31.50;1.00
10129;DHT22;5104;50.720;7.044;2022-08-03T10:55:31;31.50;1.00
10129;DHT22;5104;50.720;7.044;2022-08-03T10:58:45;31.60;1.00
10129;DHT22;5104;50.720;7.044;2022-08-03T11:01:12;32.00;1.00
10129;DHT22;5104;50.720;7.044;2022-08-03T11:04:13;32.10;1.00
10129;DHT22;5104;50.720;7.044;2022-08-03T11:06:40;32.20;1.00
10129;DHT22;5104;50.720;7.044;2022-08-03T11:09:15;32.00;1.00
10129;DHT22;5104;50.720;7.044;2022-08-03T11:11:45;32.00;1.00
10129;DHT22;5104;50.720;7.044;2022-08-03T11:14:14;32.20;1.00
10129;DHT22;5104;50.720;7.044;2022-08-03T11:16:43;32.20;1.00
10129;DHT22;5104;50.720;7.044;2022-08-03T11:19:12;32.40;1.00
10129;DHT22;5104;50.720;7.044;2022-08-03T11:21:56;32.30;1.00
10129;DHT22;5104;50.720;7.044;2022-08-03T11:27:29;32.10;1.00
10129;DHT22;5104;50.720;7.044;2022-08-03T11:29:59;32.00;1.00
10129;DHT22;5104;50.720;7.044;2022-08-03T11:32:57;32.00;1.00
10129;DHT22;5104;50.720;7.044;2022-08-03T11:35:28;31.80;1.00
10129;DHT22;5104;50.720;7.044;2022-08-03T11:38:03;31.50;1.00
10129;DHT22;5104;50.720;7.044;2022-08-03T11:40:37;31.50;1.00
10129;DHT22;5104;50.720;7.044;2022-08-03T11:43:06;31.70;1.00
10129;DHT22;5104;50.720;7.044;2022-08-03T11:45:34;31.80;1.00
10129;DHT22;5104;50.720;7.044;2022-08-03T11:48:14;31.90;1.00
10129;DHT22;5104;50.720;7.044;2022-08-03T11:50:41;31.90;1.00
10129;DHT22;5104;50.720;7.044;2022-08-03T11:53:14;31.80;1.00
10129;DHT22;5104;50.720;7.044;2022-08-03T11:55:42;31.60;1.00
10129;DHT22;5104;50.720;7.044;2022-08-03T11:58:19;31.60;1.00
10129;DHT22;5104;50.720;7.044;2022-08-03T12:00:47;31.40;1.00
10129;DHT22;5104;50.720;7.044;2022-08-03T12:03:16;31.40;1.00
10129;DHT22;5104;50.720;7.044;2022-08-03T12:05:48;31.60;1.00
10129;DHT22;5104;50.720;7.044;2022-08-03T12:08:16;31.80;1.00
10129;DHT22;5104;50.720;7.044;2022-08-03T12:10:49;31.90;1.00
10129;DHT22;5104;50.720;7.044;2022-08-03T12:13:18;32.10;1.00
10129;DHT22;5104;50.720;7.044;2022-08-03T12:15:51;32.20;1.00
10129;DHT22;5104;50.720;7.044;2022-08-03T12:18:18;32.10;1.00
10129;DHT22;5104;50.720;7.044;2022-08-03T12:20:47;32.00;1.00
10129;DHT22;5104;50.720;7.044;2022-08-03T12:23:14;32.10;1.00
10129;DHT22;5104;50.720;7.044;2022-08-03T12:25:43;32.40;1.00
10129;DHT22;5104;50.720;7.044;2022-08-03T12:28:11;32.50;1.00
10129;DHT22;5104;50.720;7.044;2022-08-03T12:30:43;32.60;1.00
10129;DHT22;5104;50.720;7.044;2022-08-03T12:33:15;32.50;1.00
10129;DHT22;5104;50.720;7.044;2022-08-03T12:35:44;32.30;1.00
10129;DHT22;5104;50.720;7.044;2022-08-03T12:38:11;32.60;1.00
10129;DHT22;5104;50.720;7.044;2022-08-03T12:40:39;32.70;1.00
10129;DHT22;5104;50.720;7.044;2022-08-03T12:43:13;32.80;1.00
10129;DHT22;5104;50.720;7.044;2022-08-03T12:45:41;32.80;1.00
10129;DHT22;5104;50.720;7.044;2022-08-03T12:48:09;32.90;1.00
10129;DHT22;5104;50.720;7.044;2022-08-03T12:50:37;33.00;1.00
10129;DHT22;5104;50.720;7.044;2022-08-03T12:53:07;32.90;1.00
10129;DHT22;5104;50.720;7.044;2022-08-03T12:55:36;32.90;1.00
10129;DHT22;5104;50.720;7.044;2022-08-03T12:58:05;32.80;1.00
10129;DHT22;5104;50.720;7.044;2022-08-03T13:00:32;32.90;1.00
10129;DHT22;5104;50.720;7.044;2022-08-03T13:03:03;33.10;1.00
10129;DHT22;5104;50.720;7.044;2022-08-03T13:05:30;33.80;1.00
10129;DHT22;5104;50.720;7.044;2022-08-03T13:07:58;34.50;1.00
10129;DHT22;5104;50.720;7.044;2022-08-03T13:10:29;34.50;1.00
10129;DHT22;5104;50.720;7.044;2022-08-03T13:12:57;34.50;1.00
10129;DHT22;5104;50.720;7.044;2022-08-03T13:15:29;34.60;1.00
10129;DHT22;5104;50.720;7.044;2022-08-03T13:17:56;35.10;1.00
10129;DHT22;5104;50.720;7.044;2022-08-03T13:20:24;34.60;1.00
10129;DHT22;5104;50.720;7.044;2022-08-03T13:22:51;34.20;1.00
10129;DHT22;5104;50.720;7.044;2022-08-03T13:25:18;33.90;1.00
10129;DHT22;5104;50.720;7.044;2022-08-03T13:27:46;33.60;1.00
10129;DHT22;5104;50.720;7.044;2022-08-03T13:30:13;33.80;1.00
10129;DHT22;5104;50.720;7.044;2022-08-03T13:32:41;34.00;1.00
10129;DHT22;5104;50.720;7.044;2022-08-03T13:35:08;34.60;1.00
10129;DHT22;5104;50.720;7.044;2022-08-03T13:37:37;34.80;1.00
10129;DHT22;5104;50.720;7.044;2022-08-03T13:40:06;34.70;1.00
10129;DHT22;5104;50.720;7.044;2022-08-03T13:42:34;34.40;1.00
10129;DHT22;5104;50.720;7.044;2022-08-03T13:45:02;34.60;1.00
10129;DHT22;5104;50.720;7.044;2022-08-03T13:47:29;34.70;1.00
10129;DHT22;5104;50.720;7.044;2022-08-03T13:49:56;34.70;1.00
10129;DHT22;5104;50.720;7.044;2022-08-03T13:52:23;34.60;1.00
10129;DHT22;5104;50.720;7.044;2022-08-03T13:54:51;34.70;1.00
10129;DHT22;5104;50.720;7.044;2022-08-03T13:57:18;35.00;1.00
10129;DHT22;5104;50.720;7.044;2022-08-03T13:59:45;34.90;1.00
10129;DHT22;5104;50.720;7.044;2022-08-03T14:02:12;35.10;1.00
10129;DHT22;5104;50.720;7.044;2022-08-03T14:04:39;35.00;1.00
10129;DHT22;5104;50.720;7.044;2022-08-03T14:07:06;35.20;1.00
10129;DHT22;5104;50.720;7.044;2022-08-03T14:09:33;35.60;1.00
10129;DHT22;5104;50.720;7.044;2022-08-03T14:12:01;35.50;1.00
10129;DHT22;5104;50.720;7.044;2022-08-03T14:14:28;35.70;1.00
10129;DHT22;5104;50.720;7.044;2022-08-03T14:16:55;35.90;1.00
10129;DHT22;5104;50.720;7.044;2022-08-03T14:19:22;35.80;1.00
10129;DHT22;5104;50.720;7.044;2022-08-03T14:21:48;35.60;1.00
10129;DHT22;5104;50.720;7.044;2022-08-03T14:24:15;35.80;1.00
10129;DHT22;5104;50.720;7.044;2022-08-03T14:26:42;35.60;1.00
10129;DHT22;5104;50.720;7.044;2022-08-03T14:29:10;35.30;1.00
10129;DHT22;5104;50.720;7.044;2022-08-03T14:31:37;35.00;1.00
10129;DHT22;5104;50.720;7.044;2022-08-03T14:34:05;34.90;1.00
10129;DHT22;5104;50.720;7.044;2022-08-03T14:36:33;35.10;1.00
10129;DHT22;5104;50.720;7.044;2022-08-03T14:39:00;35.10;1.00
10129;DHT22;5104;50.720;7.044;2022-08-03T14:41:28;35.50;1.00
10129;DHT22;5104;50.720;7.044;2022-08-03T14:43:57;36.40;1.00
10129;DHT22;5104;50.720;7.044;2022-08-03T14:46:26;36.70;1.00
10129;DHT22;5104;50.720;7.044;2022-08-03T14:48:53;36.80;1.00
10129;DHT22;5104;50.720;7.044;2022-08-03T14:51:20;37.50;1.00
10129;DHT22;5104;50.720;7.044;2022-08-03T14:53:47;38.40;1.00
10129;DHT22;5104;50.720;7.044;2022-08-03T14:56:14;37.80;1.00
10129;DHT22;5104;50.720;7.044;2022-08-03T14:58:41;38.00;1.00
10129;DHT22;5104;50.720;7.044;2022-08-03T15:01:08;38.80;1.00
10129;DHT22;5104;50.720;7.044;2022-08-03T15:03:36;39.30;1.00
10129;DHT22;5104;50.720;7.044;2022-08-03T15:06:03;39.30;1.00
10129;DHT22;5104;50.720;7.044;2022-08-03T15:08:30;38.70;1.00
10129;DHT22;5104;50.720;7.044;2022-08-03T15:10:57;39.00;1.00
10129;DHT22;5104;50.720;7.044;2022-08-03T15:13:24;38.90;1.00
10129;DHT22;5104;50.720;7.044;2022-08-03T15:15:51;39.10;1.00
10129;DHT22;5104;50.720;7.044;2022-08-03T15:18:18;38.60;1.00
10129;DHT22;5104;50.720;7.044;2022-08-03T15:20:47;38.30;1.00
10129;DHT22;5104;50.720;7.044;2022-08-03T15:23:16;37.90;1.00
10129;DHT22;5104;50.720;7.044;2022-08-03T15:25:44;37.70;1.00
10129;DHT22;5104;50.720;7.044;2022-08-03T15:28:11;37.70;1.00
10129;DHT22;5104;50.720;7.044;2022-08-03T15:30:38;38.40;1.00
10129;DHT22;5104;50.720;7.044;2022-08-03T15:33:05;39.10;1.00
10129;DHT22;5104;50.720;7.044;2022-08-03T15:35:32;39.90;1.00
10129;DHT22;5104;50.720;7.044;2022-08-03T15:38:00;40.60;1.00
10129;DHT22;5104;50.720;7.044;2022-08-03T15:40:27;40.70;1.00
10129;DHT22;5104;50.720;7.044;2022-08-03T15:42:54;40.60;1.00
10129;DHT22;5104;50.720;7.044;2022-08-03T15:45:21;40.50;1.00
10129;DHT22;5104;50.720;7.044;2022-08-03T15:47:48;39.70;1.00
10129;DHT22;5104;50.720;7.044;2022-08-03T15:50:15;40.40;1.00
10129;DHT22;5104;50.720;7.044;2022-08-03T15:52:41;40.90;1.00
10129;DHT22;5104;50.720;7.044;2022-08-03T15:55:10;41.30;1.00
10129;DHT22;5104;50.720;7.044;2022-08-03T15:57:38;40.60;1.00
10129;DHT22;5104;50.720;7.044;2022-08-03T16:00:06;40.00;1.00
10129;DHT22;5104;50.720;7.044;2022-08-03T16:02:33;38.90;1.00
10129;DHT22;5104;50.720;7.044;2022-08-03T16:05:01;39.20;1.00
10129;DHT22;5104;50.720;7.044;2022-08-03T16:07:27;39.80;1.00
10129;DHT22;5104;50.720;7.044;2022-08-03T16:10:13;40.40;1.00
10129;DHT22;5104;50.720;7.044;2022-08-03T16:12:40;40.10;1.00